createdAt,value
2023-04-01T00:02:06.850Z,9.69
2023-04-01T00:04:34.229Z,9.70
2023-04-01T00:07:02.770Z,9.71
2023-04-01T00:09:30.479Z,9.72
2023-04-01T00:11:57.762Z,9.71
2023-04-01T00:14:25.033Z,9.68
2023-04-01T00:16:53.496Z,9.71
2023-04-01T00:19:20.991Z,9.68
2023-04-01T00:21:49.083Z,9.69
2023-04-01T00:24:16.358Z,9.67
2023-04-01T00:26:44.981Z,9.60
2023-04-01T00:29:12.380Z,9.59
2023-04-01T00:31:39.741Z,9.59
2023-04-01T00:34:07.039Z,9.54
2023-04-01T00:36:34.329Z,9.55
2023-04-01T00:39:01.690Z,9.48
2023-04-01T00:41:29.094Z,9.54
2023-04-01T00:44:22.645Z,9.51
2023-04-01T00:46:50.323Z,9.48
2023-04-01T00:49:18.683Z,9.48
2023-04-01T00:51:47.106Z,9.47
2023-04-01T00:54:14.879Z,9.45
2023-04-01T00:56:51.039Z,9.42
2023-04-01T00:59:25.972Z,9.31
2023-04-01T01:01:53.375Z,9.34
2023-04-01T01:04:32.231Z,9.29
2023-04-01T01:07:38.697Z,9.24
2023-04-01T01:10:27.964Z,9.17
2023-04-01T01:13:04.321Z,9.15
2023-04-01T01:15:39.175Z,9.09
2023-04-01T01:18:27.726Z,9.02
2023-04-01T01:21:21.931Z,8.95
2023-04-01T01:24:08.117Z,8.90
2023-04-01T01:26:43.748Z,8.83
2023-04-01T01:29:45.254Z,8.78
2023-04-01T01:32:42.006Z,8.73
2023-04-01T01:35:15.519Z,8.70
2023-04-01T01:37:43.061Z,8.65
2023-04-01T01:40:12.658Z,8.66
2023-04-01T01:42:43.032Z,8.53
2023-04-01T01:45:10.468Z,8.64
2023-04-01T01:47:37.885Z,8.59
2023-04-01T01:50:07.420Z,8.68
2023-04-01T01:52:35.010Z,8.65
2023-04-01T01:55:02.923Z,8.64
2023-04-01T01:57:40.384Z,8.62
2023-04-01T02:00:15.442Z,8.56
2023-04-01T02:02:46.249Z,8.58
2023-04-01T02:05:20.062Z,8.58
2023-04-01T02:08:00.160Z,8.55
2023-04-01T02:10:27.776Z,8.58
2023-04-01T02:12:56.765Z,8.65
2023-04-01T02:15:24.142Z,8.54
2023-04-01T02:17:53.174Z,8.37
2023-04-01T02:20:24.043Z,8.27
2023-04-01T02:22:53.032Z,8.22
2023-04-01T02:25:23.970Z,8.07
2023-04-01T02:27:52.165Z,8.04
2023-04-01T02:30:19.619Z,8.08
2023-04-01T02:32:47.604Z,8.04
2023-04-01T02:35:16.213Z,7.89
2023-04-01T02:37:43.726Z,8.03
2023-04-01T02:40:14.516Z,8.01
2023-04-01T02:42:41.871Z,7.97
2023-04-01T02:45:09.774Z,7.87
2023-04-01T02:47:37.240Z,7.83
2023-04-01T02:50:05.232Z,7.84
2023-04-01T02:52:32.500Z,7.74
2023-04-01T02:55:02.224Z,7.62
2023-04-01T02:57:30.614Z,7.69
2023-04-01T02:59:57.968Z,7.66
2023-04-01T03:02:25.404Z,7.65
2023-04-01T03:04:52.891Z,7.55
2023-04-01T03:07:20.248Z,7.51
2023-04-01T03:09:47.612Z,7.38
2023-04-01T03:12:14.970Z,7.36
2023-04-01T03:14:50.683Z,7.36
2023-04-01T03:17:18.292Z,7.23
2023-04-01T03:19:46.138Z,7.33
2023-04-01T03:22:13.769Z,7.28
2023-04-01T03:24:41.100Z,7.17
2023-04-01T03:27:08.537Z,7.27
2023-04-01T03:29:36.186Z,7.30
2023-04-01T03:32:03.515Z,7.25
2023-04-01T03:34:30.962Z,7.21
2023-04-01T03:36:58.540Z,7.19
2023-04-01T03:39:26.303Z,7.23
2023-04-01T03:41:53.633Z,7.27
2023-04-01T03:44:21.401Z,7.17
2023-04-01T03:46:52.015Z,7.16
2023-04-01T03:49:19.273Z,7.19
2023-04-01T03:51:46.758Z,7.12
2023-04-01T03:54:14.323Z,7.01
2023-04-01T03:56:41.674Z,7.07
2023-04-01T03:59:08.996Z,6.98
2023-04-01T04:01:36.226Z,6.94
2023-04-01T04:04:03.802Z,6.95
2023-04-01T04:06:31.109Z,6.94
2023-04-01T04:08:58.400Z,6.98
2023-04-01T04:11:26.964Z,6.91
2023-04-01T04:13:55.560Z,6.94
2023-04-01T04:16:23.960Z,6.89
2023-04-01T04:18:57.491Z,6.95
2023-04-01T04:21:24.834Z,6.89
2023-04-01T04:23:52.564Z,6.83
2023-04-01T04:26:20.853Z,6.72
2023-04-01T04:28:55.210Z,6.51
2023-04-01T04:31:23.449Z,6.53
2023-04-01T04:33:52.430Z,6.51
2023-04-01T04:36:20.002Z,6.53
2023-04-01T04:38:49.251Z,6.57
2023-04-01T04:41:18.805Z,6.63
2023-04-01T04:43:51.111Z,6.66
2023-04-01T04:46:18.483Z,6.61
2023-04-01T04:48:46.681Z,6.72
2023-04-01T04:51:17.998Z,6.89
2023-04-01T04:53:45.507Z,7.00
2023-04-01T04:56:12.989Z,7.01
2023-04-01T04:58:48.526Z,7.08
2023-04-01T05:01:19.613Z,7.17
2023-04-01T05:03:47.179Z,7.25
2023-04-01T05:06:15.783Z,7.32
2023-04-01T05:08:43.849Z,7.32
2023-04-01T05:11:16.720Z,7.47
2023-04-01T05:13:44.716Z,7.68
2023-04-01T05:16:14.305Z,7.81
2023-04-01T05:18:41.737Z,8.07
2023-04-01T05:21:10.156Z,8.10
2023-04-01T05:23:37.525Z,7.96
2023-04-01T05:26:12.781Z,8.04
2023-04-01T05:28:40.514Z,8.10
2023-04-01T05:31:08.138Z,8.04
2023-04-01T05:33:38.731Z,8.00
2023-04-01T05:36:08.101Z,8.06
2023-04-01T05:38:35.527Z,8.13
2023-04-01T05:41:03.139Z,8.23
2023-04-01T05:43:31.654Z,8.39
2023-04-01T05:46:05.655Z,8.49
2023-04-01T05:48:40.429Z,8.47
2023-04-01T05:51:07.759Z,8.58
2023-04-01T05:53:35.224Z,8.63
2023-04-01T05:56:04.029Z,8.63
2023-04-01T05:58:35.372Z,8.76
2023-04-01T06:01:11.292Z,8.91
2023-04-01T06:03:45.902Z,9.20
2023-04-01T06:06:21.073Z,9.29
2023-04-01T06:08:48.437Z,9.40
2023-04-01T06:11:44.982Z,9.61
2023-04-01T06:14:34.034Z,9.76
2023-04-01T06:17:17.514Z,10.12
2023-04-01T06:20:13.618Z,10.36
2023-04-01T06:23:18.460Z,10.42
2023-04-01T06:25:52.082Z,10.59
2023-04-01T06:28:46.515Z,10.49
2023-04-01T06:31:41.662Z,10.58
2023-04-01T06:34:24.076Z,10.65
2023-04-01T06:37:38.874Z,10.83
2023-04-01T06:40:21.600Z,10.90
2023-04-01T06:42:57.675Z,11.02
2023-04-01T06:46:06.085Z,10.97
2023-04-01T06:49:17.223Z,10.77
2023-04-01T06:52:32.176Z,10.89
2023-04-01T06:56:01.495Z,10.96
2023-04-01T06:58:55.069Z,10.98
2023-04-01T07:01:25.595Z,11.13
2023-04-01T07:03:57.029Z,11.37
2023-04-01T07:06:27.080Z,11.53
2023-04-01T07:08:56.453Z,11.77
2023-04-01T07:11:32.636Z,11.69
2023-04-01T07:14:22.549Z,11.99
2023-04-01T07:16:56.328Z,12.02
2023-04-01T07:19:29.582Z,12.23
2023-04-01T07:22:32.714Z,12.36
2023-04-01T07:25:21.883Z,12.46
2023-04-01T07:28:07.405Z,12.35
2023-04-01T07:31:05.944Z,12.62
2023-04-01T07:33:40.937Z,12.85
2023-04-01T07:36:08.377Z,13.02
2023-04-01T07:39:07.291Z,12.97
2023-04-01T07:42:06.650Z,12.96
2023-04-01T07:44:42.771Z,12.97
2023-04-01T07:47:35.574Z,13.17
2023-04-01T07:50:32.769Z,13.27
2023-04-01T07:53:31.338Z,13.45
2023-04-01T07:56:12.737Z,13.79
2023-04-01T07:58:45.981Z,14.13
2023-04-01T08:01:22.614Z,14.04
2023-04-01T08:04:11.109Z,14.26
2023-04-01T08:06:41.229Z,14.13
2023-04-01T08:09:52.933Z,14.45
2023-04-01T08:12:43.920Z,14.47
2023-04-01T08:15:43.704Z,14.08
2023-04-01T08:18:47.812Z,13.41
2023-04-01T08:21:22.811Z,13.51
2023-04-01T08:23:52.676Z,13.22
2023-04-01T08:26:50.848Z,13.50
2023-04-01T08:29:31.413Z,13.51
2023-04-01T08:32:09.858Z,14.01
2023-04-01T08:34:41.681Z,14.08
2023-04-01T08:37:18.705Z,13.93
2023-04-01T08:40:26.646Z,14.20
2023-04-01T08:43:01.866Z,14.24
2023-04-01T08:46:03.872Z,14.33
2023-04-01T08:48:52.903Z,14.63
2023-04-01T08:51:51.775Z,14.47
2023-04-01T08:54:53.887Z,14.41
2023-04-01T08:57:54.715Z,14.51
2023-04-01T09:01:15.103Z,14.80
2023-04-01T09:03:58.815Z,14.79
2023-04-01T09:06:58.561Z,14.80
2023-04-01T09:10:02.667Z,15.10
2023-04-01T09:12:59.072Z,15.04
2023-04-01T09:15:35.116Z,14.96
2023-04-01T09:18:15.125Z,14.96
2023-04-01T09:20:52.220Z,14.63
2023-04-01T09:23:38.834Z,14.39
2023-04-01T09:26:16.567Z,14.70
2023-04-01T09:28:46.226Z,14.61
2023-04-01T09:31:19.586Z,14.74
2023-04-01T09:34:20.804Z,15.19
2023-04-01T09:37:25.572Z,15.37
2023-04-01T09:40:40.140Z,15.52
2023-04-01T09:43:22.089Z,15.38
2023-04-01T09:45:55.449Z,15.53
2023-04-01T09:48:52.334Z,15.42
2023-04-01T09:51:32.442Z,15.62
2023-04-01T09:54:15.628Z,15.66
2023-04-01T09:57:08.119Z,15.84
2023-04-01T10:00:11.612Z,16.13
2023-04-01T10:03:08.525Z,15.96
2023-04-01T10:06:10.369Z,16.07
2023-04-01T10:08:59.390Z,16.05
2023-04-01T10:11:51.625Z,16.28
2023-04-01T10:14:58.134Z,16.20
2023-04-01T10:17:43.384Z,16.33
2023-04-01T10:20:22.219Z,16.02
2023-04-01T10:23:22.147Z,16.03
2023-04-01T10:26:14.628Z,15.65
2023-04-01T10:29:20.131Z,15.50
2023-04-01T10:32:11.881Z,15.53
2023-04-01T10:35:01.973Z,15.47
2023-04-01T10:37:47.558Z,15.57
2023-04-01T10:40:14.755Z,15.50
2023-04-01T10:43:29.849Z,15.64
2023-04-01T10:46:41.806Z,15.30
2023-04-01T10:49:24.538Z,15.36
2023-04-01T10:51:56.471Z,15.43
2023-04-01T10:55:11.925Z,15.47
2023-04-01T10:58:20.883Z,15.62
2023-04-01T11:01:28.534Z,15.79
2023-04-01T11:05:00.074Z,15.85
2023-04-01T11:08:20.424Z,16.30
2023-04-01T11:11:18.579Z,16.47
2023-04-01T11:13:56.062Z,16.73
2023-04-01T11:16:41.593Z,16.60
2023-04-01T11:19:38.196Z,16.55
2023-04-01T11:22:59.717Z,16.59
2023-04-01T11:25:48.767Z,16.97
2023-04-01T11:28:50.663Z,16.69
2023-04-01T11:31:25.115Z,17.21
2023-04-01T11:34:21.963Z,16.91
2023-04-01T11:36:49.309Z,17.38
2023-04-01T11:39:34.536Z,17.25
2023-04-01T11:42:22.304Z,17.30
2023-04-01T11:45:45.546Z,17.54
2023-04-01T11:48:31.296Z,17.45
2023-04-01T11:51:01.493Z,17.27
2023-04-01T11:53:56.215Z,17.63
2023-04-01T11:56:39.150Z,17.53
2023-04-01T11:59:15.946Z,17.26
2023-04-01T12:02:08.102Z,17.35
2023-04-01T12:04:55.482Z,17.44
2023-04-01T12:07:30.923Z,17.38
2023-04-01T12:10:19.652Z,17.58
2023-04-01T12:13:24.089Z,17.66
2023-04-01T12:16:15.614Z,17.38
2023-04-01T12:18:51.894Z,17.23
2023-04-01T12:21:48.636Z,16.76
2023-04-01T12:24:36.193Z,16.56
2023-04-01T12:27:24.608Z,16.24
2023-04-01T12:30:22.899Z,15.99
2023-04-01T12:33:32.022Z,15.96
2023-04-01T12:36:17.411Z,15.85
2023-04-01T12:38:48.854Z,15.50
2023-04-01T12:41:22.692Z,15.49
2023-04-01T12:44:10.908Z,15.48
2023-04-01T12:46:59.645Z,15.50
2023-04-01T12:49:56.072Z,15.54
2023-04-01T12:52:26.021Z,15.51
2023-04-01T12:55:04.213Z,15.54
2023-04-01T12:58:02.603Z,15.73
2023-04-01T13:01:01.037Z,15.73
2023-04-01T13:03:43.394Z,15.80
2023-04-01T13:06:27.476Z,15.83
2023-04-01T13:09:08.842Z,15.79
2023-04-01T13:11:48.461Z,15.97
2023-04-01T13:14:31.339Z,16.03
2023-04-01T13:17:17.176Z,15.67
2023-04-01T13:20:04.299Z,15.59
2023-04-01T13:22:39.154Z,15.45
2023-04-01T13:25:37.401Z,15.32
2023-04-01T13:28:16.640Z,15.26
2023-04-01T13:31:20.441Z,15.13
2023-04-01T13:33:56.715Z,14.94
2023-04-01T13:36:45.554Z,14.96
2023-04-01T13:39:14.302Z,14.83
2023-04-01T13:41:44.492Z,14.75
2023-04-01T13:44:19.224Z,14.40
2023-04-01T13:46:59.760Z,14.10
2023-04-01T13:49:33.193Z,13.97
2023-04-01T13:52:25.535Z,14.14
2023-04-01T13:55:24.819Z,14.03
2023-04-01T13:57:58.767Z,13.96
2023-04-01T14:00:53.920Z,14.12
2023-04-01T14:03:24.034Z,14.42
2023-04-01T14:06:14.186Z,14.64
2023-04-01T14:08:45.495Z,14.81
2023-04-01T14:11:37.261Z,14.65
2023-04-01T14:14:28.120Z,14.68
2023-04-01T14:17:22.525Z,14.21
2023-04-01T14:20:12.200Z,14.42
2023-04-01T14:22:51.950Z,14.28
2023-04-01T14:25:31.200Z,14.66
2023-04-01T14:28:08.697Z,15.26
2023-04-01T14:30:52.880Z,15.71
2023-04-01T14:33:44.908Z,16.24
2023-04-01T14:36:39.825Z,16.81
2023-04-01T14:39:45.555Z,16.63
2023-04-01T14:42:33.755Z,17.01
2023-04-01T14:45:22.757Z,17.01
2023-04-01T14:47:59.731Z,16.63
2023-04-01T14:50:31.322Z,15.20
2023-04-01T14:53:09.800Z,14.86
2023-04-01T14:55:39.929Z,14.74
2023-04-01T14:58:14.700Z,15.66
2023-04-01T15:00:55.068Z,16.75
2023-04-01T15:03:28.030Z,15.61
2023-04-01T15:06:16.557Z,15.10
2023-04-01T15:09:02.498Z,14.95
2023-04-01T15:11:49.762Z,15.10
2023-04-01T15:14:29.107Z,15.04
2023-04-01T15:17:00.340Z,14.64
2023-04-01T15:19:30.091Z,14.70
2023-04-01T15:22:21.878Z,14.91
2023-04-01T15:25:03.874Z,14.94
2023-04-01T15:27:51.830Z,14.84
2023-04-01T15:30:36.718Z,14.39
2023-04-01T15:33:08.207Z,14.14
2023-04-01T15:35:47.886Z,14.07
2023-04-01T15:38:24.181Z,14.00
2023-04-01T15:41:23.816Z,14.01
2023-04-01T15:43:53.266Z,14.00
2023-04-01T15:46:23.275Z,13.92
2023-04-01T15:48:56.697Z,13.90
2023-04-01T15:51:38.901Z,13.76
2023-04-01T15:54:10.565Z,13.53
2023-04-01T15:56:42.274Z,13.47
2023-04-01T15:59:54.486Z,13.38
2023-04-01T16:02:41.453Z,13.32
2023-04-01T16:05:29.060Z,13.42
2023-04-01T16:08:31.928Z,13.38
2023-04-01T16:11:19.091Z,13.33
2023-04-01T16:14:05.117Z,13.24
2023-04-01T16:16:41.216Z,13.17
2023-04-01T16:19:34.033Z,13.18
2023-04-01T16:22:19.556Z,13.16
2023-04-01T16:24:48.007Z,13.17
2023-04-01T16:27:35.300Z,13.19
2023-04-01T16:30:21.294Z,13.19
2023-04-01T16:33:14.270Z,13.11
2023-04-01T16:35:52.108Z,12.95
2023-04-01T16:38:27.805Z,12.91
2023-04-01T16:41:23.113Z,12.91
2023-04-01T16:43:56.847Z,12.91
2023-04-01T16:46:41.745Z,12.87
2023-04-01T16:49:11.945Z,12.95
2023-04-01T16:51:49.751Z,12.91
2023-04-01T16:54:19.945Z,12.82
2023-04-01T16:56:55.417Z,12.79
2023-04-01T16:59:37.472Z,12.67
2023-04-01T17:02:09.879Z,12.65
2023-04-01T17:04:46.697Z,12.48
2023-04-01T17:07:51.163Z,12.37
2023-04-01T17:10:37.403Z,12.34
2023-04-01T17:13:20.639Z,12.22
2023-04-01T17:16:08.719Z,12.00
2023-04-01T17:18:41.952Z,11.98
2023-04-01T17:21:29.671Z,11.88
2023-04-01T17:24:22.580Z,11.68
2023-04-01T17:26:55.176Z,11.73
2023-04-01T17:29:41.279Z,11.69
2023-04-01T17:32:32.621Z,11.66
2023-04-01T17:35:15.426Z,11.68
2023-04-01T17:37:42.704Z,11.60
2023-04-01T17:40:42.502Z,11.59
2023-04-01T17:43:15.494Z,11.58
2023-04-01T17:45:56.880Z,11.51
2023-04-01T17:48:45.572Z,11.45
2023-04-01T17:51:50.726Z,11.41
2023-04-01T17:54:33.271Z,11.50
2023-04-01T17:57:06.034Z,11.39
2023-04-01T17:59:53.798Z,11.21
2023-04-01T18:02:36.359Z,11.15
2023-04-01T18:05:32.874Z,11.17
2023-04-01T18:08:36.842Z,11.12
2023-04-01T18:11:07.481Z,11.09
2023-04-01T18:14:14.484Z,11.08
2023-04-01T18:16:47.584Z,11.17
2023-04-01T18:19:52.384Z,11.24
2023-04-01T18:22:45.637Z,11.48
2023-04-01T18:25:18.203Z,11.70
2023-04-01T18:28:30.612Z,11.88
2023-04-01T18:31:04.024Z,12.05
2023-04-01T18:33:44.593Z,12.12
2023-04-01T18:36:20.181Z,12.14
2023-04-01T18:38:57.201Z,12.19
2023-04-01T18:41:36.445Z,12.22
2023-04-01T18:44:28.451Z,12.21
2023-04-01T18:47:01.568Z,12.29
2023-04-01T18:49:58.233Z,12.29
2023-04-01T18:52:25.458Z,12.29
2023-04-01T18:55:01.951Z,12.36
2023-04-01T18:57:51.337Z,12.41
2023-04-01T19:00:21.350Z,12.46
2023-04-01T19:03:03.867Z,12.48
2023-04-01T19:05:35.326Z,12.48
2023-04-01T19:08:32.213Z,12.56
2023-04-01T19:11:18.133Z,12.53
2023-04-01T19:13:57.404Z,12.60
2023-04-01T19:16:31.484Z,12.62
2023-04-01T19:19:23.086Z,12.65
2023-04-01T19:21:54.028Z,12.61
2023-04-01T19:24:26.881Z,12.57
2023-04-01T19:27:07.164Z,12.47
2023-04-01T19:29:44.273Z,12.55
2023-04-01T19:32:17.107Z,12.48
2023-04-01T19:35:07.591Z,12.42
2023-04-01T19:37:44.978Z,12.40
2023-04-01T19:40:25.981Z,12.30
2023-04-01T19:42:59.929Z,12.37
2023-04-01T19:45:33.301Z,12.42
2023-04-01T19:48:07.064Z,12.33
2023-04-01T19:51:07.391Z,12.36
2023-04-01T19:53:40.708Z,12.35
2023-04-01T19:56:19.161Z,12.25
2023-04-01T19:58:51.720Z,12.30
2023-04-01T20:01:45.262Z,12.25
2023-04-01T20:04:35.411Z,12.24
2023-04-01T20:07:10.612Z,12.10
2023-04-01T20:10:04.193Z,12.20
2023-04-01T20:12:59.065Z,12.13
2023-04-01T20:15:45.901Z,12.04
2023-04-01T20:18:24.910Z,12.14
2023-04-01T20:21:15.502Z,12.10
2023-04-01T20:23:51.658Z,12.11
2023-04-01T20:26:39.141Z,12.07
2023-04-01T20:29:22.976Z,11.91
2023-04-01T20:32:29.117Z,11.91
2023-04-01T20:35:21.335Z,11.92
2023-04-01T20:38:07.290Z,11.86
2023-04-01T20:40:39.883Z,11.83
2023-04-01T20:43:31.833Z,11.81
2023-04-01T20:46:20.171Z,11.74
2023-04-01T20:49:08.535Z,11.57
2023-04-01T20:51:44.474Z,11.48
2023-04-01T20:54:34.772Z,11.52
2023-04-01T20:57:11.299Z,11.41
2023-04-01T20:59:57.745Z,11.43
2023-04-01T21:02:34.019Z,11.39
2023-04-01T21:05:11.349Z,11.32
2023-04-01T21:07:45.859Z,11.27
2023-04-01T21:10:42.668Z,11.17
2023-04-01T21:13:31.891Z,11.16
2023-04-01T21:16:35.243Z,11.12
2023-04-01T21:19:14.624Z,11.09
2023-04-01T21:21:52.217Z,11.09
2023-04-01T21:24:57.805Z,11.00
2023-04-01T21:27:27.723Z,11.00
2023-04-01T21:30:31.941Z,10.93
2023-04-01T21:33:15.201Z,10.88
2023-04-01T21:36:01.187Z,10.81
2023-04-01T21:38:41.191Z,10.73
2023-04-01T21:41:11.397Z,10.69
2023-04-01T21:43:57.422Z,10.71
2023-04-01T21:46:49.529Z,10.68
2023-04-01T21:49:22.783Z,10.67
2023-04-01T21:52:08.279Z,10.62
2023-04-01T21:54:57.388Z,10.59
2023-04-01T21:57:49.490Z,10.67
2023-04-01T22:00:35.147Z,10.61
2023-04-01T22:03:43.506Z,10.56
2023-04-01T22:06:31.061Z,10.60
2023-04-01T22:09:11.159Z,10.53
2023-04-01T22:11:50.664Z,10.58
2023-04-01T22:14:44.681Z,10.60
2023-04-01T22:17:24.128Z,10.59
2023-04-01T22:20:11.003Z,10.57
2023-04-01T22:23:13.813Z,10.37
2023-04-01T22:26:00.306Z,10.57
2023-04-01T22:28:36.230Z,10.49
2023-04-01T22:31:04.198Z,10.51
2023-04-01T22:34:22.810Z,10.55
2023-04-01T22:37:08.171Z,10.42
2023-04-01T22:39:50.671Z,10.37
2023-04-01T22:42:33.190Z,10.34
2023-04-01T22:45:07.100Z,10.31
2023-04-01T22:47:50.764Z,10.22
2023-04-01T22:50:25.468Z,10.18
2023-04-01T22:53:00.506Z,10.15
2023-04-01T22:55:31.544Z,10.06
2023-04-01T22:58:16.085Z,10.02
2023-04-01T23:00:46.556Z,10.03
2023-04-01T23:03:30.110Z,9.89
2023-04-01T23:06:01.728Z,9.65
2023-04-01T23:08:55.549Z,9.49
2023-04-01T23:11:46.091Z,9.48
2023-04-01T23:14:24.358Z,9.48
2023-04-01T23:17:03.987Z,9.52
2023-04-01T23:19:53.251Z,9.53
2023-04-01T23:22:28.726Z,9.33
2023-04-01T23:25:17.479Z,9.53
2023-04-01T23:28:10.600Z,9.51
2023-04-01T23:30:40.948Z,9.40
2023-04-01T23:33:23.383Z,9.38
2023-04-01T23:35:57.754Z,9.33
2023-04-01T23:38:26.425Z,9.35
2023-04-01T23:40:55.061Z,9.39
2023-04-01T23:43:32.174Z,9.46
2023-04-01T23:46:01.588Z,9.54
2023-04-01T23:48:39.658Z,9.55
2023-04-01T23:51:27.707Z,9.73
2023-04-01T23:54:16.275Z,9.48
2023-04-01T23:56:49.006Z,9.74
2023-04-01T23:59:38.487Z,9.70
